Time;durP1;ratioP1;P1;durP2;ratioP2;P2;SDS_P1;SDS_P2;PMS_P1;PMS_P2;Temp;Humidity;BMP_temperature;BMP_pressure;BME280_temperature;BME280_humidity;BME280_pressure;Samples;Min_cycle;Max_cycle;Signal;HPM_P1;HPM_P2
2022/03/23 00:00:56;;;;;;;15.50;9.73;;;;;;;3.05;53.64;93935.41;5047976;28;20194;-75
2022/03/23 00:03:22;;;;;;;14.90;10.57;;;;;;;3.06;53.91;93929.25;5046813;28;20253;-75
2022/03/23 00:05:48;;;;;;;11.47;10.67;;;;;;;2.63;54.58;93886.84;5047825;28;20198;-75
2022/03/23 00:08:13;;;;;;;14.73;10.80;;;;;;;2.88;54.40;93900.72;5048224;28;20212;-75
2022/03/23 00:10:39;;;;;;;11.60;10.80;;;;;;;2.97;54.29;93909.81;5048769;28;20194;-75
2022/03/23 00:13:04;;;;;;;10.77;9.90;;;;;;;2.85;54.55;93911.41;5048028;28;20201;-75
2022/03/23 00:15:31;;;;;;;11.57;10.40;;;;;;;2.69;54.26;93896.34;5048247;28;20232;-75
2022/03/23 00:17:57;;;;;;;11.57;10.53;;;;;;;2.68;54.52;93911.03;5048399;28;20222;-75
2022/03/23 00:20:24;;;;;;;10.67;9.63;;;;;;;2.78;53.50;93902.88;5046744;28;20283;-75
2022/03/23 00:22:50;;;;;;;11.17;10.27;;;;;;;2.79;53.80;93897.53;5047275;28;20194;-75
2022/03/23 00:25:16;;;;;;;11.10;10.10;;;;;;;2.85;53.77;93919.13;5047623;28;20233;-75
2022/03/23 00:27:41;;;;;;;11.83;10.70;;;;;;;2.55;54.14;93892.19;5048146;28;20226;-74
2022/03/23 00:30:08;;;;;;;14.17;12.40;;;;;;;2.11;53.11;93836.09;5046787;28;20245;-75
2022/03/23 00:32:34;;;;;;;13.60;12.50;;;;;;;2.59;53.32;93891.59;5051000;28;20259;-75
2022/03/23 00:35:00;;;;;;;11.87;10.77;;;;;;;2.67;52.54;93903.50;5051663;28;20261;-75
2022/03/23 00:37:26;;;;;;;10.43;9.47;;;;;;;2.72;51.87;93891.59;5052434;28;20189;-75
2022/03/23 00:39:51;;;;;;;10.97;10.13;;;;;;;2.77;55.37;93906.47;5049154;28;20241;-75
2022/03/23 00:42:16;;;;;;;11.33;10.43;;;;;;;2.70;53.12;93877.31;5052250;28;20245;-75
2022/03/23 00:44:43;;;;;;;11.50;10.50;;;;;;;2.78;53.52;93905.47;5050386;28;20232;-75
2022/03/23 00:47:09;;;;;;;11.17;10.27;;;;;;;2.78;54.13;93905.47;5052272;28;20218;-75
2022/03/23 00:49:36;;;;;;;10.87;9.80;;;;;;;2.56;53.72;93904.09;5051244;28;20237;-74
2022/03/23 00:52:05;;;;;;;10.33;9.63;;;;;;;2.57;53.10;93911.63;5051276;28;20212;-75
2022/03/23 00:54:33;;;;;;;10.67;9.93;;;;;;;2.62;52.81;93908.44;5049468;28;20237;-75
2022/03/23 00:56:58;;;;;;;9.83;9.13;;;;;;;2.61;52.32;93904.28;5051832;28;20197;-75
2022/03/23 00:59:24;;;;;;;11.27;10.27;;;;;;;2.72;50.82;93906.28;5048508;28;20234;-75
2022/03/23 01:01:50;;;;;;;10.53;9.90;;;;;;;2.86;50.80;93916.34;5051577;28;20245;-74
2022/03/23 01:04:15;;;;;;;10.53;9.60;;;;;;;2.58;52.15;93902.09;5050090;28;20233;-75
2022/03/23 01:06:41;;;;;;;9.87;9.17;;;;;;;2.66;50.53;93901.91;5051455;28;20182;-75
2022/03/23 01:09:07;;;;;;;10.93;10.07;;;;;;;2.65;51.48;93915.78;5050961;28;20449;-75
2022/03/23 01:11:33;;;;;;;9.83;8.97;;;;;;;2.47;51.70;93894.97;5050951;28;20193;-75
2022/03/23 01:13:58;;;;;;;11.17;8.87;;;;;;;2.73;51.71;93925.88;5050891;28;20289;-75
2022/03/23 01:16:24;;;;;;;15.80;9.97;;;;;;;2.73;51.16;93918.16;5051091;28;20198;-75
2022/03/23 01:18:50;;;;;;;9.70;8.90;;;;;;;2.85;50.44;93921.72;5049284;28;20262;-75
2022/03/23 01:21:16;;;;;;;10.00;9.20;;;;;;;2.90;51.41;93907.25;5048438;28;20216;-75
2022/03/23 01:23:42;;;;;;;10.73;10.00;;;;;;;2.75;51.67;93918.75;5049170;28;20226;-75
2022/03/23 01:26:08;;;;;;;9.80;9.10;;;;;;;2.75;51.05;93916.97;5044723;28;20217;-74
2022/03/23 01:28:34;;;;;;;10.03;9.23;;;;;;;2.59;51.05;93893.38;5050327;28;20272;-74
2022/03/23 01:31:00;;;;;;;11.43;10.67;;;;;;;2.61;51.70;93894.78;5049897;28;20186;-74
2022/03/23 01:33:25;;;;;;;11.57;9.50;;;;;;;2.57;52.51;93903.88;5049505;28;20253;-75
2022/03/23 01:35:50;;;;;;;10.37;9.53;;;;;;;2.54;53.23;93909.44;5048165;28;20213;-75
2022/03/23 01:38:16;;;;;;;11.13;10.17;;;;;;;2.24;55.14;93892.75;5048497;28;20236;-75
2022/03/23 01:40:41;;;;;;;10.43;9.73;;;;;;;2.00;55.65;93903.63;5047826;28;20178;-74
2022/03/23 01:43:07;;;;;;;11.00;9.97;;;;;;;2.03;56.16;93905.00;5046955;28;20202;-75
2022/03/23 01:45:32;;;;;;;11.87;10.93;;;;;;;1.77;56.90;93881.78;5047976;28;20182;-74
2022/03/23 01:47:58;;;;;;;10.27;9.70;;;;;;;1.54;56.56;93846.09;5048703;28;20182;-74
2022/03/23 01:50:23;;;;;;;11.77;11.03;;;;;;;1.85;57.40;93899.63;5043330;28;20210;-74
2022/03/23 01:52:49;;;;;;;10.70;10.10;;;;;;;1.56;58.17;93892.97;5048651;28;20162;-74
2022/03/23 01:55:17;;;;;;;10.03;8.87;;;;;;;1.54;58.18;93885.47;5049094;28;20762;-74
2022/03/23 01:57:45;;;;;;;11.77;10.87;;;;;;;1.42;58.77;93881.06;5046919;28;20278;-74
2022/03/23 02:00:11;;;;;;;10.60;9.83;;;;;;;1.42;57.41;93866.41;5049578;28;20244;-75
2022/03/23 02:02:38;;;;;;;10.43;9.57;;;;;;;1.24;58.53;93855.88;5042387;28;20193;-75
2022/03/23 02:05:04;;;;;;;12.63;9.87;;;;;;;1.18;58.66;93874.63;5048541;28;20237;-74
2022/03/23 02:07:30;;;;;;;11.37;10.27;;;;;;;1.28;59.14;93875.06;5049722;28;20186;-74
2022/03/23 02:09:56;;;;;;;11.17;9.93;;;;;;;1.26;57.71;93869.31;5050027;28;20233;-74
2022/03/23 02:12:22;;;;;;;10.77;9.77;;;;;;;1.58;58.09;93883.31;5048891;28;20190;-74
2022/03/23 02:14:48;;;;;;;10.37;9.60;;;;;;;1.42;58.10;93887.00;5048323;28;20229;-75
2022/03/23 02:17:14;;;;;;;10.37;9.43;;;;;;;1.37;58.44;93858.47;5048584;28;20289;-75
2022/03/23 02:19:40;;;;;;;10.67;9.63;;;;;;;1.27;58.12;93877.84;5049486;28;20218;-74
2022/03/23 02:22:06;;;;;;;10.80;9.87;;;;;;;1.23;58.21;93881.78;5049844;28;20170;-75
2022/03/23 02:24:33;;;;;;;11.07;10.03;;;;;;;1.24;58.62;93879.03;5050270;28;20234;-74
2022/03/23 02:26:59;;;;;;;11.03;10.03;;;;;;;1.07;59.18;93858.94;5048309;28;20182;-75
2022/03/23 02:29:34;;;;;;;10.87;10.03;;;;;;;1.02;59.48;93844.09;5049479;28;20222;-75
2022/03/23 02:32:01;;;;;;;11.33;10.30;;;;;;;1.21;59.54;93881.16;5048931;28;20208;-75
2022/03/23 02:34:28;;;;;;;10.63;9.90;;;;;;;1.20;58.60;93874.41;5049393;28;20226;-73
2022/03/23 02:36:54;;;;;;;10.20;9.47;;;;;;;1.23;58.67;93877.41;5050190;28;20209;-74
2022/03/23 02:39:20;;;;;;;9.93;9.33;;;;;;;1.21;58.01;93863.16;5042238;28;20222;-75
2022/03/23 02:41:46;;;;;;;9.93;9.17;;;;;;;1.36;56.79;93882.63;5050506;28;20197;-75
2022/03/23 02:44:16;;;;;;;10.63;9.93;;;;;;;1.49;56.98;93880.09;5049057;28;20252;-73
2022/03/23 02:46:42;;;;;;;16.20;9.37;;;;;;;1.47;56.82;93892.38;5048859;28;20253;-74
2022/03/23 02:49:09;;;;;;;8.67;8.17;;;;;;;1.54;56.73;93885.47;5050098;28;20253;-75
2022/03/23 02:51:35;;;;;;;10.03;9.43;;;;;;;1.37;56.76;93853.34;5049678;28;20202;-74
2022/03/23 03:03:10;;;;;;;10.37;9.53;;;;;;;1.22;57.83;93868.13;5016820;28;20207;-75
2022/03/23 03:05:35;;;;;;;10.80;10.10;;;;;;;1.39;58.71;93900.25;5048923;28;20222;-75
2022/03/23 03:10:45;;;;;;;12.00;8.77;;;;;;;1.41;57.76;93874.34;5049562;28;20212;-75
2022/03/23 03:13:10;;;;;;;11.90;10.70;;;;;;;1.38;56.88;93874.72;5049122;28;20194;-75
2022/03/23 03:15:36;;;;;;;10.63;9.77;;;;;;;1.67;56.88;93891.66;5048295;28;20209;-75
2022/03/23 03:18:01;;;;;;;10.87;10.17;;;;;;;1.54;57.57;93885.47;5046608;28;20226;-75
2022/03/23 03:20:27;;;;;;;10.90;10.07;;;;;;;1.50;57.62;93897.13;5048472;28;20226;-75
2022/03/23 03:22:53;;;;;;;10.73;9.93;;;;;;;1.46;57.38;93883.03;5049587;28;20189;-75
2022/03/23 03:25:20;;;;;;;10.23;9.43;;;;;;;1.37;57.67;93876.50;5049071;28;20297;-75
2022/03/23 03:27:46;;;;;;;10.33;9.63;;;;;;;1.38;57.83;93895.28;5047770;28;20221;-75
2022/03/23 03:30:14;;;;;;;10.37;9.30;;;;;;;1.40;58.70;93883.81;5048406;28;20240;-75
2022/03/23 03:32:40;;;;;;;10.03;9.10;;;;;;;1.53;58.76;93895.94;5049127;28;20324;-75
2022/03/23 03:35:06;;;;;;;9.60;9.10;;;;;;;1.32;59.52;93871.13;5047787;28;20241;-75
2022/03/23 03:37:32;;;;;;;9.53;8.70;;;;;;;1.30;60.05;93887.75;5049196;28;20202;-76
2022/03/23 03:39:59;;;;;;;10.67;9.60;;;;;;;1.15;60.14;93871.66;5048047;28;20245;-75
2022/03/23 03:42:25;;;;;;;10.50;9.70;;;;;;;1.50;59.09;93886.84;5047879;28;20220;-75
2022/03/23 03:44:51;;;;;;;11.90;10.80;;;;;;;1.16;59.04;93821.78;5046323;28;20237;-75
2022/03/23 03:47:18;;;;;;;12.50;11.60;;;;;;;1.41;59.26;93882.84;5045987;28;20205;-75
2022/03/23 03:49:43;;;;;;;10.20;9.47;;;;;;;1.45;59.15;93880.66;5046449;28;20232;-75
2022/03/23 03:52:09;;;;;;;9.77;8.90;;;;;;;1.52;58.27;93887.44;5037736;28;20190;-75
2022/03/23 03:54:34;;;;;;;11.13;10.03;;;;;;;1.39;59.64;93884.81;5041519;28;20306;-75
2022/03/23 03:57:00;;;;;;;11.20;10.43;;;;;;;1.32;61.23;93890.91;5040265;28;20216;-75
2022/03/23 03:59:25;;;;;;;10.03;9.30;;;;;;;1.05;61.45;93887.41;5048301;28;20234;-75
2022/03/23 04:01:51;;;;;;;10.43;9.53;;;;;;;0.94;61.53;93882.81;5048295;28;20208;-75
2022/03/23 04:04:16;;;;;;;11.10;10.20;;;;;;;1.14;61.86;93895.75;5048246;28;20259;-75
2022/03/23 04:06:42;;;;;;;9.63;8.90;;;;;;;1.34;61.45;93889.72;5048423;28;20197;-77
2022/03/23 04:09:08;;;;;;;10.97;10.07;;;;;;;1.38;62.02;93905.59;5046734;28;20294;-77
2022/03/23 04:11:34;;;;;;;11.60;10.70;;;;;;;1.12;62.84;93895.19;5047968;28;20205;-75
2022/03/23 04:14:00;;;;;;;10.83;9.77;;;;;;;1.29;61.95;93901.59;5048646;28;20250;-75
2022/03/23 04:16:25;;;;;;;11.70;10.80;;;;;;;1.18;62.70;93895.19;5048100;28;20170;-75
2022/03/23 04:18:51;;;;;;;11.30;10.20;;;;;;;1.10;62.67;93897.13;5048588;28;20230;-74
2022/03/23 04:21:16;;;;;;;10.17;9.43;;;;;;;1.02;63.16;93903.22;5048561;28;20189;-74
2022/03/23 04:23:42;;;;;;;11.57;10.77;;;;;;;1.06;62.60;93894.13;5048279;28;20222;-74
2022/03/23 04:26:07;;;;;;;10.33;9.53;;;;;;;1.07;63.74;93888.03;5039867;28;20254;-74
2022/03/23 04:28:33;;;;;;;11.20;10.03;;;;;;;1.28;62.59;93895.66;5047555;28;20246;-75
2022/03/23 04:31:00;;;;;;;11.50;10.50;;;;;;;1.32;63.11;93901.97;5042639;28;20210;-75
2022/03/23 04:33:25;;;;;;;12.60;11.37;;;;;;;1.21;63.25;93899.19;5047461;28;20230;-75
2022/03/23 04:35:51;;;;;;;12.17;11.27;;;;;;;1.25;63.20;93893.47;5047570;28;20252;-75
2022/03/23 04:38:16;;;;;;;12.30;10.83;;;;;;;1.48;62.51;93906.81;5049027;28;20206;-74
2022/03/23 04:40:42;;;;;;;10.10;9.20;;;;;;;1.36;62.15;93867.19;5039620;28;20178;-74
2022/03/23 04:43:07;;;;;;;12.03;9.70;;;;;;;1.60;61.62;93865.91;5048129;28;20202;-75
2022/03/23 04:45:33;;;;;;;10.53;9.73;;;;;;;1.87;60.64;93898.44;5048255;28;20186;-74
2022/03/23 04:47:59;;;;;;;11.00;10.17;;;;;;;2.10;60.22;93900.69;5048441;28;20216;-74
2022/03/23 04:50:24;;;;;;;11.20;10.10;;;;;;;2.09;59.52;93868.16;5046121;28;20233;-76
2022/03/23 04:52:52;;;;;;;10.87;9.93;;;;;;;2.45;59.11;93896.94;5048226;28;20187;-75
2022/03/23 04:55:18;;;;;;;12.90;10.30;;;;;;;2.26;59.07;93874.53;5048313;28;20233;-76
2022/03/23 04:57:44;;;;;;;10.47;9.57;;;;;;;2.31;59.05;93892.75;5048809;28;20174;-76
2022/03/23 05:00:13;;;;;;;11.27;10.30;;;;;;;2.41;57.66;93890.59;5048007;28;20237;-76
2022/03/23 05:02:39;;;;;;;11.53;10.63;;;;;;;2.44;58.38;93874.75;5047593;28;20206;-74
2022/03/23 05:05:07;;;;;;;12.03;10.83;;;;;;;2.57;57.11;93879.91;5046328;28;20252;-83
2022/03/23 05:07:32;;;;;;;12.27;11.17;;;;;;;2.65;58.16;93884.84;5045223;28;20194;-76
2022/03/23 05:09:58;;;;;;;12.13;9.63;;;;;;;2.53;57.47;93865.81;5042565;28;20257;-86
2022/03/23 05:12:25;;;;;;;13.60;9.97;;;;;;;2.57;57.91;93878.09;5045774;28;20198;-76
2022/03/23 05:14:51;;;;;;;11.87;10.70;;;;;;;2.81;58.20;93879.28;5044363;28;20226;-75
2022/03/23 05:17:16;;;;;;;11.33;10.50;;;;;;;3.01;56.21;93874.88;5047594;28;20249;-79
2022/03/23 05:19:44;;;;;;;11.17;10.23;;;;;;;2.98;56.90;93870.13;5049929;28;20218;-79
2022/03/23 05:22:10;;;;;;;13.07;9.67;;;;;;;2.88;56.14;93818.97;5050853;28;20181;-79
2022/03/23 05:24:35;;;;;;;10.73;9.73;;;;;;;3.40;55.66;93885.09;5049810;28;20277;-82
2022/03/23 05:27:00;;;;;;;25.80;13.73;;;;;;;3.58;56.55;93898.13;5049160;28;20198;-80
2022/03/23 05:29:26;;;;;;;94.67;37.37;;;;;;;3.81;54.98;93882.16;5050002;28;20255;-77
2022/03/23 05:31:52;;;;;;;21.93;14.03;;;;;;;3.68;54.95;93877.84;5048605;28;20253;-74
2022/03/23 05:34:17;;;;;;;11.00;10.20;;;;;;;3.76;54.90;93875.03;5048376;28;20276;-76
2022/03/23 05:36:43;;;;;;;12.13;11.00;;;;;;;3.61;54.41;93850.47;5049162;28;20194;-76
2022/03/23 05:39:08;;;;;;;13.67;11.80;;;;;;;4.09;53.75;93870.50;5049893;28;20237;-76
2022/03/23 05:41:33;;;;;;;11.73;10.63;;;;;;;4.43;52.62;93893.34;5050306;28;20202;-76
2022/03/23 05:43:59;;;;;;;11.53;10.33;;;;;;;4.38;53.59;93905.28;5049532;28;20218;-75
2022/03/23 05:46:25;;;;;;;11.47;10.53;;;;;;;4.20;53.21;93893.06;5048906;28;20190;-75
2022/03/23 05:48:52;;;;;;;11.23;10.33;;;;;;;4.26;52.27;93899.22;5046495;28;20245;-75
2022/03/23 05:51:18;;;;;;;12.57;11.63;;;;;;;4.61;50.99;93883.03;5047285;28;20182;-75
2022/03/23 05:53:43;;;;;;;12.20;10.67;;;;;;;4.97;49.98;93903.84;5047176;28;20325;-79
2022/03/23 05:56:09;;;;;;;12.60;11.30;;;;;;;3.87;51.49;93758.16;5048233;28;20217;-82
2022/03/23 05:58:34;;;;;;;13.20;11.83;;;;;;;4.37;52.44;93883.81;5044386;28;20230;-83
2022/03/23 06:01:02;;;;;;;13.33;10.13;;;;;;;4.47;51.77;93889.31;5048435;28;20184;-80
2022/03/23 06:03:28;;;;;;;12.07;10.83;;;;;;;5.03;50.38;93904.78;5048507;28;20237;-80
2022/03/23 06:05:53;;;;;;;12.27;11.23;;;;;;;4.69;50.99;93862.09;5049117;28;20213;-82
2022/03/23 06:08:19;;;;;;;15.40;10.53;;;;;;;5.15;49.70;93902.28;5047028;28;20210;-80
2022/03/23 06:10:44;;;;;;;13.10;11.67;;;;;;;4.43;51.69;93911.44;5047192;28;20194;-79
2022/03/23 06:13:10;;;;;;;11.83;10.63;;;;;;;4.41;52.09;93892.75;5048896;28;20225;-80
2022/03/23 06:15:35;;;;;;;14.90;9.80;;;;;;;4.69;51.52;93903.47;5047307;28;20340;-81
2022/03/23 06:18:01;;;;;;;20.57;13.97;;;;;;;4.88;51.35;93907.72;5047239;28;20269;-80
2022/03/23 06:20:26;;;;;;;13.47;11.37;;;;;;;4.76;50.65;93909.38;5049508;28;20222;-80
2022/03/23 06:22:52;;;;;;;13.43;12.13;;;;;;;5.10;49.96;93904.72;5049593;28;20190;-81
2022/03/23 06:25:18;;;;;;;12.77;11.47;;;;;;;4.85;50.45;93915.09;5041638;28;20215;-81
2022/03/23 06:27:43;;;;;;;12.80;10.67;;;;;;;4.58;51.00;93885.25;5047878;28;20209;-80
2022/03/23 06:30:09;;;;;;;11.67;10.57;;;;;;;4.37;51.83;93914.81;5049489;28;20230;-79
2022/03/23 06:32:35;;;;;;;10.93;10.07;;;;;;;4.50;51.85;93924.28;5048070;28;20249;-79
2022/03/23 06:35:02;;;;;;;11.93;11.00;;;;;;;4.64;51.97;93924.00;5048129;28;20229;-80
2022/03/23 06:37:27;;;;;;;12.00;10.97;;;;;;;4.58;50.89;93904.16;5046949;28;20187;-80
2022/03/23 06:39:53;;;;;;;10.97;9.93;;;;;;;4.64;51.42;93911.06;5047893;28;20217;-81
2022/03/23 06:42:18;;;;;;;12.57;10.87;;;;;;;4.91;50.27;93922.00;5047357;28;20214;-80
2022/03/23 06:44:44;;;;;;;12.17;10.87;;;;;;;4.70;50.77;93902.47;5047177;28;20245;-80
2022/03/23 06:47:09;;;;;;;12.13;11.10;;;;;;;4.80;50.84;93910.56;5049560;28;20200;-89
2022/03/23 06:49:35;;;;;;;12.57;11.43;;;;;;;4.54;50.69;93838.34;5049128;28;20230;-83
2022/03/23 06:52:00;;;;;;;15.67;14.17;;;;;;;4.96;50.94;93920.34;5047692;28;20182;-79
2022/03/23 06:54:26;;;;;;;13.77;11.27;;;;;;;4.43;52.01;93867.47;5047240;28;20251;-82
2022/03/23 06:56:52;;;;;;;13.40;11.80;;;;;;;4.95;50.41;93916.19;5047925;28;20186;-82
2022/03/23 06:59:21;;;;;;;15.90;12.60;;;;;;;4.92;51.89;93929.56;5049000;28;20304;-81
2022/03/23 07:01:47;;;;;;;12.20;11.27;;;;;;;4.69;52.78;93893.13;5047240;28;20190;-79
2022/03/23 07:04:12;;;;;;;12.17;11.23;;;;;;;5.16;51.01;93909.03;5048576;28;20260;-81
2022/03/23 07:06:38;;;;;;;12.77;11.67;;;;;;;5.20;52.00;93925.75;5047589;28;20179;-80
2022/03/23 07:11:48;;;;;;;18.93;13.67;;;;;;;5.11;53.34;93935.56;5048268;28;20220;-79
2022/03/23 07:14:13;;;;;;;12.23;10.93;;;;;;;4.58;52.12;93877.50;5048314;28;20222;-76
2022/03/23 07:16:39;;;;;;;12.77;11.27;;;;;;;5.39;52.63;93925.53;5047553;28;20186;-77
2022/03/23 07:19:04;;;;;;;13.80;11.80;;;;;;;5.53;52.27;93937.34;5045586;28;20234;-77
2022/03/23 07:21:31;;;;;;;12.70;11.43;;;;;;;5.24;52.67;93924.28;5048836;28;20193;-78
2022/03/23 07:23:56;;;;;;;17.13;11.60;;;;;;;5.53;52.34;93941.72;5046111;28;20225;-79
2022/03/23 07:26:22;;;;;;;13.17;11.40;;;;;;;5.72;51.75;93909.66;5047698;28;20206;-79
2022/03/23 07:28:48;;;;;;;11.63;10.77;;;;;;;5.91;50.22;93930.19;5045421;28;20222;-77
2022/03/23 07:31:14;;;;;;;18.70;12.53;;;;;;;6.27;48.36;93934.53;5047867;28;20182;-79
2022/03/23 07:33:39;;;;;;;13.27;11.07;;;;;;;6.17;48.12;93944.63;5045960;28;20248;-78
2022/03/23 07:36:05;;;;;;;12.43;11.23;;;;;;;6.03;48.99;93936.22;5047698;28;20224;-79
2022/03/23 07:38:30;;;;;;;11.37;10.27;;;;;;;6.12;48.20;93924.53;5043150;28;20230;-79
2022/03/23 07:40:56;;;;;;;13.30;12.30;;;;;;;6.32;47.36;93945.81;5042379;28;20204;-80
2022/03/23 07:43:21;;;;;;;11.80;10.70;;;;;;;6.11;48.80;93946.28;5046112;28;20197;-79
2022/03/23 07:45:47;;;;;;;13.20;12.10;;;;;;;6.45;48.64;93945.66;5047982;28;20212;-80
2022/03/23 07:48:16;;;;;;;16.47;10.77;;;;;;;6.48;48.54;93941.81;5045981;28;20197;-78
2022/03/23 07:50:41;;;;;;;14.60;13.13;;;;;;;6.46;48.96;93936.03;5047440;28;20183;-78
2022/03/23 07:53:07;;;;;;;12.77;11.47;;;;;;;6.25;49.20;93920.97;5046933;28;20219;-77
2022/03/23 07:55:32;;;;;;;16.77;11.37;;;;;;;5.74;49.97;93892.09;5045499;28;20307;-77
2022/03/23 07:57:58;;;;;;;12.73;11.60;;;;;;;6.15;47.71;93944.03;5046939;28;20279;-79
2022/03/23 08:00:23;;;;;;;15.57;11.20;;;;;;;6.05;49.45;93946.38;5047088;28;20288;-80
2022/03/23 08:02:50;;;;;;;13.87;11.90;;;;;;;6.30;48.70;93949.66;5047987;28;20170;-79
2022/03/23 08:05:16;;;;;;;14.37;12.83;;;;;;;6.01;49.19;93945.19;5045525;28;20230;-78
2022/03/23 08:07:41;;;;;;;14.20;11.97;;;;;;;6.17;49.12;93940.22;5048670;28;20193;-78
2022/03/23 08:10:07;;;;;;;16.83;11.87;;;;;;;6.40;47.76;93934.34;5046589;28;20249;-79
2022/03/23 08:12:33;;;;;;;12.60;11.60;;;;;;;6.62;46.88;93929.44;5048250;28;20194;-80
2022/03/23 08:14:58;;;;;;;17.00;10.40;;;;;;;6.87;46.39;93937.84;5047250;28;20245;-79
2022/03/23 08:17:23;;;;;;;13.03;12.10;;;;;;;7.15;46.18;93932.78;5046318;28;21039;-80
2022/03/23 08:20:32;;;;;;;11.10;10.20;;;;;;;7.13;45.73;93946.00;5047826;28;20220;-80
2022/03/23 08:22:35;;;;;;;12.20;11.20;;;;;;;7.32;45.20;93912.94;5045464;28;20181;-81
2022/03/23 08:25:00;;;;;;;11.50;10.67;;;;;;;7.49;45.73;93925.00;5044352;28;20923;-80
2022/03/23 08:27:26;;;;;;;13.03;11.63;;;;;;;7.56;45.66;93937.88;5048156;28;20182;-79
2022/03/23 08:29:52;;;;;;;11.67;10.67;;;;;;;7.17;45.08;93923.78;5047157;28;20302;-79
2022/03/23 08:32:17;;;;;;;12.67;11.40;;;;;;;7.47;45.25;93945.22;5048128;28;20246;-80
2022/03/23 08:34:43;;;;;;;17.07;11.07;;;;;;;7.70;44.88;93947.84;5046005;28;20232;-78
2022/03/23 08:37:08;;;;;;;12.10;11.20;;;;;;;7.18;46.16;93953.13;5047616;28;20258;-79
2022/03/23 08:39:34;;;;;;;12.20;11.00;;;;;;;7.23;46.52;93946.25;5046033;28;20330;-80
2022/03/23 08:41:59;;;;;;;12.47;11.03;;;;;;;7.16;46.17;93955.19;5045791;28;20261;-80
2022/03/23 08:44:25;;;;;;;11.43;10.57;;;;;;;6.74;47.01;93954.41;5046687;28;21855;-80
2022/03/23 08:46:50;;;;;;;12.47;11.30;;;;;;;6.61;46.78;93936.44;5047125;28;20254;-80
2022/03/23 08:49:15;;;;;;;13.47;12.03;;;;;;;7.24;47.09;93949.63;5046127;28;20249;-81
2022/03/23 08:51:41;;;;;;;12.30;11.00;;;;;;;7.17;46.16;93928.19;5047804;28;20194;-80
2022/03/23 08:54:07;;;;;;;12.63;11.60;;;;;;;7.56;46.25;93930.91;5048602;28;20297;-80
2022/03/23 08:56:32;;;;;;;11.73;10.63;;;;;;;7.97;44.75;93951.50;5050662;28;20194;-80
2022/03/23 08:58:57;;;;;;;11.83;10.40;;;;;;;8.10;43.82;93956.47;5049174;28;20233;-81
2022/03/23 09:01:23;;;;;;;12.77;11.30;;;;;;;8.42;43.69;93935.22;5050566;28;20190;-81
2022/03/23 09:03:49;;;;;;;12.73;11.73;;;;;;;8.33;42.56;93932.19;5049244;28;20238;-82
2022/03/23 09:06:15;;;;;;;12.43;11.13;;;;;;;8.71;41.86;93957.63;5050937;28;20197;-80
2022/03/23 09:08:41;;;;;;;11.73;10.57;;;;;;;8.69;42.38;93949.25;5050372;28;20238;-80
2022/03/23 09:11:07;;;;;;;12.30;11.07;;;;;;;8.37;42.57;93948.94;5049494;28;20198;-80
2022/03/23 09:13:33;;;;;;;12.60;11.40;;;;;;;8.58;42.47;93944.88;5050133;28;20221;-80
2022/03/23 09:15:59;;;;;;;11.03;10.13;;;;;;;8.75;41.13;93956.13;5049951;28;20224;-83
2022/03/23 09:18:28;;;;;;;11.70;10.87;;;;;;;8.65;40.91;93958.56;5050339;28;20245;-79
2022/03/23 09:20:54;;;;;;;14.90;11.27;;;;;;;7.69;43.74;93938.44;5051466;28;20209;-81
2022/03/23 09:23:20;;;;;;;11.70;10.70;;;;;;;7.89;42.24;93945.88;5049063;28;20185;-80
2022/03/23 09:25:45;;;;;;;16.20;12.07;;;;;;;8.53;41.41;93942.97;5051219;28;20194;-82
2022/03/23 09:28:11;;;;;;;14.07;12.77;;;;;;;8.39;42.61;93926.06;5049007;28;20198;-80
2022/03/23 09:30:37;;;;;;;14.97;11.80;;;;;;;8.37;42.30;93950.75;5048116;28;20205;-80
2022/03/23 09:33:03;;;;;;;14.90;11.40;;;;;;;8.01;41.91;93934.44;5050201;28;20208;-81
2022/03/23 09:35:28;;;;;;;12.53;11.27;;;;;;;8.09;41.73;93934.06;5049670;28;20225;-80
2022/03/23 09:37:56;;;;;;;15.03;11.43;;;;;;;8.30;41.87;93940.47;5050431;28;20212;-78
2022/03/23 09:40:31;;;;;;;12.50;11.23;;;;;;;8.16;41.35;93937.31;5043669;28;20291;-81
2022/03/23 09:42:59;;;;;;;13.40;12.30;;;;;;;7.92;42.12;93932.41;5050755;28;20257;-79
2022/03/23 09:48:05;;;;;;;11.77;10.87;;;;;;;6.82;44.22;93912.56;5048819;28;20251;-80
2022/03/23 09:50:33;;;;;;;12.60;11.30;;;;;;;8.06;42.36;93926.72;5028011;28;20223;-79
2022/03/23 09:52:59;;;;;;;16.60;11.33;;;;;;;8.52;41.64;93925.00;5031395;28;20199;-81
2022/03/23 09:55:25;;;;;;;12.30;11.07;;;;;;;8.64;40.55;93928.34;5030622;28;20234;-81
2022/03/23 09:57:59;;;;;;;11.67;10.57;;;;;;;7.52;43.42;93908.16;5032121;28;20198;-82
2022/03/23 10:00:28;;;;;;;11.47;10.37;;;;;;;7.93;42.59;93885.38;5046135;28;20229;-78
2022/03/23 10:03:11;;;;;;;14.67;11.03;;;;;;;7.79;42.17;93924.84;5050384;28;20224;-77
2022/03/23 10:06:05;;;;;;;13.90;11.17;;;;;;;8.08;42.10;93918.69;5049889;28;20252;-79
2022/03/23 10:09:12;;;;;;;13.83;11.63;;;;;;;7.47;44.74;93916.66;5050601;28;20221;-80
2022/03/23 10:12:04;;;;;;;18.70;11.97;;;;;;;7.68;43.98;93910.06;5027296;28;20293;-78
2022/03/23 10:14:44;;;;;;;12.00;11.00;;;;;;;7.88;44.23;93900.88;5050023;28;20298;-78
2022/03/23 10:17:47;;;;;;;13.10;11.77;;;;;;;7.54;44.89;93899.13;5050456;28;20256;-84
2022/03/23 10:20:14;;;;;;;12.50;11.40;;;;;;;8.18;43.79;93898.88;5050544;28;20919;-81
2022/03/23 10:22:47;;;;;;;13.73;12.50;;;;;;;8.37;41.38;93899.50;5051044;28;20174;-79
2022/03/23 10:25:13;;;;;;;12.70;11.57;;;;;;;7.67;41.76;93885.88;5050085;28;20213;-81
2022/03/23 10:27:39;;;;;;;11.67;10.53;;;;;;;7.25;44.47;93847.34;5050356;28;20190;-79
2022/03/23 10:30:06;;;;;;;18.23;11.70;;;;;;;7.63;42.96;93878.78;5048721;28;20841;-79
2022/03/23 10:32:38;;;;;;;12.37;11.37;;;;;;;7.72;43.70;93887.81;5050316;28;20213;-79
2022/03/23 10:35:12;;;;;;;14.63;12.03;;;;;;;8.16;43.74;93890.50;5050334;28;20218;-79
2022/03/23 10:37:37;;;;;;;17.07;11.63;;;;;;;7.62;42.38;93896.19;5048181;28;20179;-82
2022/03/23 10:40:07;;;;;;;12.67;11.70;;;;;;;7.82;42.82;93891.41;5050097;28;20244;-80
2022/03/23 10:42:35;;;;;;;12.73;11.57;;;;;;;7.85;42.74;93890.94;5049662;28;20212;-80
2022/03/23 10:45:12;;;;;;;12.33;11.10;;;;;;;7.69;42.39;93883.84;5040580;28;20264;-80
2022/03/23 10:47:40;;;;;;;11.30;10.40;;;;;;;7.93;41.66;93885.38;5047275;28;20249;-79
2022/03/23 10:50:15;;;;;;;19.53;10.20;;;;;;;7.97;42.76;93857.88;5047728;28;20240;-80
2022/03/23 10:53:05;;;;;;;11.57;10.30;;;;;;;8.27;41.39;93856.88;5049058;28;20340;-79
2022/03/23 10:55:35;;;;;;;11.30;10.37;;;;;;;8.14;40.36;93860.53;5049257;28;20226;-80
2022/03/23 10:58:01;;;;;;;13.00;10.47;;;;;;;8.11;41.30;93872.19;5050019;28;20198;-77
2022/03/23 11:00:38;;;;;;;11.60;10.60;;;;;;;8.02;40.65;93872.78;5047507;28;20265;-81
2022/03/23 11:03:06;;;;;;;12.13;11.20;;;;;;;8.13;40.57;93870.16;5049818;28;20175;-82
2022/03/23 11:05:32;;;;;;;12.53;11.37;;;;;;;8.20;40.54;93865.59;5047692;28;20892;-78
2022/03/23 11:08:25;;;;;;;11.77;10.97;;;;;;;8.19;39.18;93861.44;5047311;28;20205;-81
2022/03/23 11:16:36;;;;;;;12.17;10.77;;;;;;;8.04;39.43;93840.34;5048879;28;20218;-77
2022/03/23 11:19:14;;;;;;;10.90;9.90;;;;;;;8.20;37.84;93860.38;5047947;28;20241;-78
2022/03/23 11:21:56;;;;;;;11.67;10.40;;;;;;;8.05;37.71;93846.31;5049800;28;20274;-76
2022/03/23 11:24:22;;;;;;;12.13;11.07;;;;;;;8.11;37.27;93834.97;5046721;28;20244;-79
2022/03/23 11:26:50;;;;;;;18.70;10.63;;;;;;;8.31;37.31;93848.41;5045707;28;20213;-78
2022/03/23 11:29:17;;;;;;;10.47;9.77;;;;;;;8.20;36.47;93810.97;5048216;28;20237;-77
2022/03/23 11:31:45;;;;;;;11.23;10.30;;;;;;;8.09;36.87;93818.84;5049631;28;20189;-77
2022/03/23 11:34:13;;;;;;;11.43;10.43;;;;;;;8.07;37.63;93823.47;5048690;28;20268;-78
2022/03/23 11:36:41;;;;;;;12.10;11.07;;;;;;;8.13;37.58;93832.94;5048771;28;20178;-77
2022/03/23 11:39:06;;;;;;;11.47;10.47;;;;;;;8.07;37.57;93834.69;5048627;28;20280;-77
2022/03/23 11:41:33;;;;;;;10.60;9.77;;;;;;;8.33;37.74;93841.13;5049442;28;20193;-79
2022/03/23 11:43:58;;;;;;;12.27;11.03;;;;;;;8.35;38.73;93826.09;5048728;28;20221;-77
2022/03/23 11:46:25;;;;;;;12.47;11.20;;;;;;;8.45;38.98;93826.25;5049045;28;20213;-76
2022/03/23 11:49:29;;;;;;;10.60;9.80;;;;;;;8.46;39.16;93820.03;5048725;28;20230;-78